Time;durP1;ratioP1;P1;durP2;ratioP2;P2;SDS_P1;SDS_P2;PMS_P1;PMS_P2;Temp;Humidity;BMP_temperature;BMP_pressure;BME280_temperature;BME280_humidity;BME280_pressure;Samples;Min_cycle;Max_cycle;Signal;HPM_P1;HPM_P2
2022/05/09 00:02:21;;;;;;;17.10;6.20;;;6.20;81.80;;;;;;4813768;29;20566;-87
2022/05/09 00:04:46;;;;;;;22.60;6.87;;;6.20;82.00;;;;;;4830871;29;20651;-86
2022/05/09 00:07:12;;;;;;;14.40;5.97;;;6.20;82.20;;;;;;4830164;29;20176;-85
2022/05/09 00:09:38;;;;;;;13.97;5.90;;;6.00;82.50;;;;;;4829755;29;20180;-85
2022/05/09 00:12:04;;;;;;;15.63;5.47;;;6.00;82.80;;;;;;4828681;29;20203;-87
2022/05/09 00:14:29;;;;;;;18.80;5.93;;;5.90;82.70;;;;;;4809824;29;20240;-87
2022/05/09 00:16:55;;;;;;;11.13;5.63;;;6.00;82.80;;;;;;4809752;29;20187;-87
2022/05/09 00:19:21;;;;;;;13.90;5.60;;;6.00;82.50;;;;;;4809983;29;20184;-87
2022/05/09 00:21:48;;;;;;;16.53;5.40;;;6.00;82.50;;;;;;4809378;29;20250;-87
2022/05/09 00:24:17;;;;;;;13.13;5.67;;;6.00;82.20;;;;;;4826003;29;20263;-87
2022/05/09 00:26:43;;;;;;;10.60;5.50;;;5.90;82.00;;;;;;4825921;29;20199;-87
2022/05/09 00:29:10;;;;;;;12.87;5.23;;;5.90;81.70;;;;;;4825885;29;20651;-87
2022/05/09 00:31:36;;;;;;;12.47;4.90;;;5.90;81.50;;;;;;4809410;29;20722;-87
2022/05/09 00:34:02;;;;;;;15.33;5.30;;;5.90;81.40;;;;;;4825949;29;20181;-87
2022/05/09 00:36:28;;;;;;;12.70;5.00;;;5.90;81.10;;;;;;4825423;29;20187;-87
2022/05/09 00:38:53;;;;;;;15.13;5.43;;;5.90;80.90;;;;;;4809316;29;20726;-87
2022/05/09 00:41:34;;;;;;;14.67;5.47;;;5.90;80.70;;;;;;4809328;29;20216;-87
2022/05/09 00:44:02;;;;;;;10.53;4.97;;;5.90;80.30;;;;;;4809264;29;20583;-87
2022/05/09 00:46:29;;;;;;;11.03;4.80;;;5.90;80.20;;;;;;4825465;29;20269;-87
2022/05/09 00:48:58;;;;;;;8.40;5.73;;;5.90;79.90;;;;;;4825396;29;20189;-87
2022/05/09 00:51:27;;;;;;;14.17;5.00;;;5.90;79.50;;;;;;4825677;29;20182;-87
2022/05/09 00:53:56;;;;;;;9.07;4.37;;;5.80;79.40;;;;;;4809046;29;20268;-87
2022/05/09 00:56:55;;;;;;;12.43;4.47;;;5.80;79.20;;;;;;4809034;29;20188;-87
2022/05/09 00:59:21;;;;;;;6.87;3.83;;;5.80;79.00;;;;;;4825159;29;20260;-87
2022/05/09 01:01:47;;;;;;;7.47;4.23;;;5.80;78.70;;;;;;4808740;29;20232;-87
2022/05/09 01:04:26;;;;;;;7.53;3.63;;;5.80;78.50;;;;;;4825340;29;20169;-87
2022/05/09 01:06:53;;;;;;;5.00;3.33;;;5.80;78.50;;;;;;4825599;29;20523;-87
2022/05/09 01:09:18;;;;;;;7.43;3.30;;;5.80;78.60;;;;;;4825536;29;20179;-87
2022/05/09 01:11:46;;;;;;;5.90;2.87;;;5.80;78.50;;;;;;4808746;29;20214;-87
2022/05/09 01:14:29;;;;;;;6.13;3.23;;;5.80;78.50;;;;;;4808693;29;20187;-87
2022/05/09 01:16:57;;;;;;;7.73;4.07;;;5.70;78.30;;;;;;4825281;29;20179;-87
2022/05/09 01:19:35;;;;;;;7.53;4.03;;;5.60;78.70;;;;;;4825009;29;20746;-87
2022/05/09 01:22:02;;;;;;;8.33;4.00;;;5.50;79.20;;;;;;4825009;29;20213;-87
2022/05/09 01:24:28;;;;;;;4.47;3.10;;;5.50;79.40;;;;;;4808792;29;20274;-87
2022/05/09 01:26:55;;;;;;;3.80;2.93;;;5.50;79.50;;;;;;4824897;29;20213;-87
2022/05/09 01:29:47;;;;;;;6.40;3.10;;;5.50;79.60;;;;;;4808495;29;20191;-87
2022/05/09 01:32:17;;;;;;;4.37;2.97;;;5.50;79.70;;;;;;4808539;29;20301;-87
2022/05/09 01:34:47;;;;;;;7.53;3.13;;;5.50;79.60;;;;;;4824799;29;20192;-87
2022/05/09 01:37:14;;;;;;;6.87;3.60;;;5.50;79.40;;;;;;4824771;29;20535;-87
2022/05/09 01:39:39;;;;;;;3.10;2.53;;;5.50;79.30;;;;;;4824843;29;20670;-87
2022/05/09 01:42:09;;;;;;;7.57;3.30;;;5.40;79.20;;;;;;4808262;29;20245;-87
2022/05/09 01:44:36;;;;;;;5.63;3.53;;;5.40;79.20;;;;;;4824647;29;20183;-87
2022/05/09 01:49:46;;;;;;;3.37;2.40;;;5.40;79.10;;;;;;4824344;29;20358;-87
2022/05/09 01:52:16;;;;;;;6.00;3.33;;;5.30;79.10;;;;;;4824516;29;20298;-87
2022/05/09 01:54:43;;;;;;;6.10;3.13;;;5.30;79.10;;;;;;4824713;29;20168;-87
2022/05/09 01:57:10;;;;;;;4.80;3.03;;;5.30;79.40;;;;;;4809017;29;20601;-87
2022/05/09 01:59:37;;;;;;;12.63;4.10;;;5.20;80.20;;;;;;4807993;29;20667;-87
2022/05/09 02:02:09;;;;;;;6.60;3.73;;;5.30;80.20;;;;;;4824126;29;20223;-87
2022/05/09 02:04:38;;;;;;;6.63;3.30;;;5.30;80.00;;;;;;4824551;29;20187;-87
2022/05/09 02:07:05;;;;;;;7.70;3.67;;;5.20;80.10;;;;;;4809127;29;20202;-87
2022/05/09 02:09:30;;;;;;;7.03;3.90;;;5.20;80.90;;;;;;4824492;29;20544;-87
2022/05/09 02:11:56;;;;;;;8.73;3.90;;;5.10;80.90;;;;;;4824249;29;20212;-87
2022/05/09 02:14:21;;;;;;;11.20;4.23;;;5.10;80.80;;;;;;4807962;29;20243;-87
2022/05/09 02:16:47;;;;;;;7.97;3.93;;;5.10;80.80;;;;;;4824324;29;20233;-87
2022/05/09 02:19:12;;;;;;;10.13;4.10;;;5.10;80.70;;;;;;4808047;29;20567;-86
2022/05/09 02:21:41;;;;;;;5.80;4.63;;;5.10;81.00;;;;;;4824370;29;20246;-87
2022/05/09 02:24:07;;;;;;;5.87;4.10;;;5.00;81.90;;;;;;4808779;29;20185;-87
2022/05/09 02:26:33;;;;;;;8.17;5.60;;;5.10;82.30;;;;;;4824345;29;20174;-87
2022/05/09 02:28:58;;;;;;;7.50;6.00;;;4.90;82.90;;;;;;4808041;29;20178;-87
2022/05/09 02:31:24;;;;;;;7.93;6.53;;;4.80;83.50;;;;;;4824092;29;20340;-87
2022/05/09 02:33:50;;;;;;;15.53;9.33;;;4.80;83.70;;;;;;4808343;29;20243;-87
2022/05/09 02:36:16;;;;;;;13.30;8.30;;;4.80;83.80;;;;;;4824963;29;20188;-87
2022/05/09 02:38:41;;;;;;;16.13;7.97;;;4.80;83.80;;;;;;4808210;29;20186;-87
2022/05/09 02:41:07;;;;;;;11.93;7.07;;;4.80;83.80;;;;;;4824672;29;20205;-87
2022/05/09 02:43:34;;;;;;;12.47;6.13;;;4.80;83.60;;;;;;4807770;29;20570;-87
2022/05/09 02:46:03;;;;;;;13.33;5.83;;;4.70;83.40;;;;;;4807730;29;20181;-87
2022/05/09 02:48:31;;;;;;;10.93;4.80;;;4.80;83.40;;;;;;4807967;29;20225;-87
2022/05/09 02:50:56;;;;;;;15.90;5.23;;;4.70;83.20;;;;;;4808113;29;20190;-87
2022/05/09 02:53:22;;;;;;;12.47;4.83;;;4.70;83.20;;;;;;4823757;29;20796;-87
2022/05/09 02:55:47;;;;;;;9.23;4.47;;;4.70;83.60;;;;;;4823854;29;20189;-87
2022/05/09 02:58:14;;;;;;;8.27;4.30;;;4.70;83.50;;;;;;4824111;29;20197;-87
2022/05/09 03:00:40;;;;;;;9.53;4.90;;;4.80;83.70;;;;;;4825379;29;20196;-87
2022/05/09 03:05:49;;;;;;;10.30;4.53;;;4.40;84.20;;;;;;4827315;29;20176;-87
2022/05/09 03:08:17;;;;;;;12.57;5.03;;;4.40;84.50;;;;;;4810697;29;20190;-87
2022/05/09 03:10:44;;;;;;;8.50;5.37;;;4.30;84.60;;;;;;4827152;29;20309;-87
2022/05/09 03:13:14;;;;;;;11.27;4.70;;;4.10;85.20;;;;;;4810595;29;20209;-88
2022/05/09 03:15:45;;;;;;;10.23;4.63;;;4.30;85.40;;;;;;4810561;29;20187;-87
2022/05/09 03:18:13;;;;;;;10.03;5.10;;;4.30;85.40;;;;;;4811477;29;20188;-87
2022/05/09 03:20:39;;;;;;;16.27;6.30;;;4.30;85.40;;;;;;4810577;29;20188;-87
2022/05/09 03:23:07;;;;;;;12.83;5.87;;;4.30;85.80;;;;;;4826626;29;20598;-87
2022/05/09 03:25:33;;;;;;;11.23;5.77;;;4.30;86.20;;;;;;4810510;29;20203;-87
2022/05/09 03:27:59;;;;;;;14.60;5.27;;;4.10;86.10;;;;;;4810382;29;20663;-87
2022/05/09 03:30:26;;;;;;;13.33;5.07;;;4.10;86.20;;;;;;4826657;29;20187;-87
2022/05/09 03:32:53;;;;;;;10.83;5.30;;;4.20;86.10;;;;;;4826486;29;20200;-87
2022/05/09 03:35:18;;;;;;;11.93;4.93;;;4.30;86.10;;;;;;4826506;29;20177;-87
2022/05/09 03:37:44;;;;;;;14.33;4.90;;;4.30;85.80;;;;;;4826407;29;20184;-88
2022/05/09 03:40:11;;;;;;;8.10;5.03;;;4.30;85.70;;;;;;4826441;29;20667;-88
2022/05/09 03:42:36;;;;;;;13.70;5.70;;;4.40;85.50;;;;;;4809998;29;20224;-88
2022/05/09 03:45:03;;;;;;;7.87;4.90;;;4.30;85.00;;;;;;4810505;29;20271;-87
2022/05/09 03:47:29;;;;;;;12.70;4.87;;;4.40;85.10;;;;;;4826359;29;20238;-87
2022/05/09 03:49:57;;;;;;;10.37;4.87;;;4.60;85.30;;;;;;4826428;29;20185;-87
2022/05/09 03:52:22;;;;;;;9.23;4.57;;;4.70;85.20;;;;;;4811790;29;20709;-88
2022/05/09 03:54:48;;;;;;;8.10;4.37;;;4.80;84.60;;;;;;4826307;29;20219;-87
2022/05/09 03:57:14;;;;;;;8.97;4.47;;;4.90;84.00;;;;;;4810288;29;20189;-87
2022/05/09 03:59:39;;;;;;;8.20;4.47;;;4.90;83.60;;;;;;4826346;29;20217;-88
2022/05/09 04:02:05;;;;;;;9.43;4.77;;;5.00;83.20;;;;;;4809692;29;20239;-88
2022/05/09 04:04:30;;;;;;;9.40;4.40;;;5.10;83.00;;;;;;4809923;29;20181;-88
2022/05/09 04:06:56;;;;;;;13.77;4.27;;;5.20;82.90;;;;;;4825909;29;20190;-87
2022/05/09 04:09:21;;;;;;;7.50;4.60;;;5.30;82.50;;;;;;4826090;29;20710;-87
2022/05/09 04:11:48;;;;;;;8.30;4.00;;;5.40;82.10;;;;;;4825436;29;20288;-88
2022/05/09 04:14:15;;;;;;;11.53;4.33;;;5.50;81.80;;;;;;4826202;29;20670;-88
2022/05/09 04:16:50;;;;;;;15.40;4.60;;;5.70;81.30;;;;;;4809674;29;20657;-87
2022/05/09 04:19:16;;;;;;;11.93;5.40;;;5.60;81.40;;;;;;4826241;29;20732;-87
2022/05/09 04:21:42;;;;;;;9.60;4.53;;;5.70;81.80;;;;;;4809740;29;20800;-87
2022/05/09 04:24:08;;;;;;;21.27;4.77;;;5.70;81.80;;;;;;4825832;29;20269;-87
2022/05/09 04:26:33;;;;;;;16.37;4.80;;;5.80;81.90;;;;;;4825760;29;20190;-87
2022/05/09 04:29:00;;;;;;;11.13;4.77;;;5.90;82.20;;;;;;4825699;29;20183;-88
2022/05/09 04:31:28;;;;;;;10.37;4.77;;;5.90;82.80;;;;;;4809173;29;20659;-87
2022/05/09 04:33:55;;;;;;;10.13;5.03;;;5.80;83.40;;;;;;4809629;29;20599;-87
2022/05/09 04:36:21;;;;;;;12.43;5.50;;;5.80;83.90;;;;;;4825772;29;20180;-87
2022/05/09 04:38:50;;;;;;;10.77;4.93;;;5.90;84.10;;;;;;4809340;29;20733;-88
2022/05/09 04:41:17;;;;;;;14.97;4.97;;;5.90;84.60;;;;;;4809196;29;20294;-87
2022/05/09 04:43:42;;;;;;;15.37;6.47;;;5.90;85.10;;;;;;4809202;29;20178;-88
2022/05/09 04:46:08;;;;;;;10.60;5.33;;;5.90;85.40;;;;;;4825506;29;20190;-87
2022/05/09 04:48:34;;;;;;;13.30;5.93;;;5.90;85.80;;;;;;4825518;29;20182;-87
2022/05/09 04:51:00;;;;;;;13.67;4.87;;;5.90;86.20;;;;;;4825453;29;20192;-88
2022/05/09 04:53:26;;;;;;;12.03;7.20;;;6.00;86.40;;;;;;4825400;29;20213;-88
2022/05/09 04:55:56;;;;;;;16.87;6.07;;;6.10;86.80;;;;;;4825307;29;20198;-88
2022/05/09 04:58:21;;;;;;;11.80;5.60;;;6.30;87.00;;;;;;4825481;29;20190;-88
2022/05/09 05:00:47;;;;;;;13.93;5.57;;;6.40;87.30;;;;;;4808787;29;20186;-88
2022/05/09 05:03:13;;;;;;;15.80;6.40;;;6.50;87.40;;;;;;4825058;29;20226;-87
2022/05/09 05:05:40;;;;;;;18.80;6.03;;;6.60;87.40;;;;;;4825152;29;20252;-88
2022/05/09 05:08:06;;;;;;;17.23;6.03;;;6.70;87.40;;;;;;4808996;29;20186;-88
2022/05/09 05:10:32;;;;;;;15.80;6.03;;;6.80;87.50;;;;;;4825623;29;20638;-87
2022/05/09 05:12:59;;;;;;;16.63;6.10;;;6.90;87.60;;;;;;4825334;29;20698;-87
2022/05/09 05:15:28;;;;;;;20.53;7.70;;;7.00;87.50;;;;;;4825237;29;20546;-88
2022/05/09 05:17:54;;;;;;;16.53;6.10;;;7.20;87.40;;;;;;4808901;29;20215;-88
2022/05/09 05:20:20;;;;;;;23.03;7.30;;;7.30;87.30;;;;;;4825294;29;20606;-88
2022/05/09 05:22:47;;;;;;;18.10;6.80;;;7.40;87.30;;;;;;4824971;29;20706;-89
2022/05/09 05:25:15;;;;;;;15.83;5.43;;;7.50;87.20;;;;;;4824681;29;20192;-87
2022/05/09 05:27:40;;;;;;;23.40;6.43;;;7.70;87.10;;;;;;4825000;29;20192;-88
2022/05/09 05:30:09;;;;;;;13.13;6.13;;;7.80;86.90;;;;;;4808764;29;20671;-88
2022/05/09 05:32:37;;;;;;;11.57;5.03;;;8.00;87.00;;;;;;4825239;29;20204;-88
2022/05/09 05:35:07;;;;;;;14.93;5.57;;;8.30;86.80;;;;;;4825190;29;20243;-88
2022/05/09 05:37:34;;;;;;;16.47;6.17;;;8.40;86.30;;;;;;4808753;29;20192;-88
2022/05/09 05:40:04;;;;;;;14.43;5.23;;;8.50;85.50;;;;;;4825064;29;20703;-88
2022/05/09 05:42:29;;;;;;;12.00;5.10;;;8.60;85.00;;;;;;4808589;29;20691;-88
2022/05/09 05:44:55;;;;;;;11.37;4.87;;;8.80;84.60;;;;;;4825939;29;20221;-88
2022/05/09 05:47:22;;;;;;;17.40;5.90;;;8.90;84.30;;;;;;4808738;29;20561;-88
2022/05/09 05:49:49;;;;;;;16.93;5.93;;;9.10;83.80;;;;;;4808714;29;20184;-88
2022/05/09 05:52:15;;;;;;;11.47;4.80;;;9.20;83.00;;;;;;4824900;29;20200;-88
2022/05/09 05:54:43;;;;;;;12.50;4.67;;;9.30;82.40;;;;;;4808618;29;20221;-88
2022/05/09 05:57:18;;;;;;;16.67;4.93;;;9.50;82.70;;;;;;4808741;29;20192;-88
2022/05/09 05:59:59;;;;;;;18.40;4.97;;;9.60;82.20;;;;;;4824871;29;20553;-88
2022/05/09 06:02:26;;;;;;;20.17;5.13;;;9.70;81.40;;;;;;4808038;29;20716;-87
2022/05/09 06:04:52;;;;;;;14.60;4.53;;;9.80;80.70;;;;;;4826046;29;20195;-88
2022/05/09 06:07:19;;;;;;;10.47;4.43;;;9.70;80.30;;;;;;4808502;29;20234;-89
2022/05/09 06:09:46;;;;;;;13.03;4.30;;;10.00;80.30;;;;;;4825249;29;20681;-88
2022/05/09 06:12:14;;;;;;;12.17;3.93;;;10.10;79.60;;;;;;4825100;29;20677;-88
2022/05/09 06:14:40;;;;;;;16.77;4.73;;;10.30;77.70;;;;;;4824857;29;20184;-88
2022/05/09 06:17:07;;;;;;;14.40;4.40;;;10.40;76.30;;;;;;4808451;29;20199;-87
2022/05/09 06:19:33;;;;;;;9.37;3.57;;;10.60;74.30;;;;;;4825005;29;20266;-88
2022/05/09 06:21:59;;;;;;;12.73;4.03;;;10.50;73.90;;;;;;4824699;29;20295;-89
2022/05/09 06:24:25;;;;;;;17.07;4.40;;;10.80;74.60;;;;;;4808361;29;20340;-88
2022/05/09 06:26:51;;;;;;;10.67;3.27;;;10.70;73.80;;;;;;4808416;29;20250;-88
2022/05/09 06:29:18;;;;;;;15.60;4.00;;;10.60;73.50;;;;;;4808559;29;20188;-88
2022/05/09 06:31:44;;;;;;;11.17;3.80;;;10.90;73.30;;;;;;4808289;29;20231;-89
2022/05/09 06:34:12;;;;;;;11.97;3.83;;;11.10;71.90;;;;;;4808282;29;20184;-89
2022/05/09 06:36:39;;;;;;;14.00;3.40;;;11.20;71.50;;;;;;4827800;29;20189;-89
2022/05/09 06:39:06;;;;;;;12.87;3.23;;;11.50;70.60;;;;;;4827987;29;20192;-88
2022/05/09 06:41:32;;;;;;;12.00;3.33;;;11.60;70.10;;;;;;4812146;29;20295;-89
2022/05/09 06:43:58;;;;;;;10.57;3.13;;;11.80;69.50;;;;;;4827957;29;20231;-89
2022/05/09 06:46:24;;;;;;;9.83;3.10;;;11.80;68.90;;;;;;4828363;29;20215;-88
2022/05/09 06:48:49;;;;;;;15.10;3.57;;;11.70;67.30;;;;;;4828047;29;20180;-88
2022/05/09 06:51:15;;;;;;;9.50;3.00;;;11.90;66.90;;;;;;4827891;29;20592;-88
2022/05/09 06:53:41;;;;;;;24.63;3.07;;;12.20;66.90;;;;;;4811650;29;20659;-88
2022/05/09 06:56:06;;;;;;;10.83;3.10;;;12.40;65.90;;;;;;4827906;29;20207;-88
2022/05/09 06:58:32;;;;;;;10.63;3.13;;;12.50;64.70;;;;;;4811203;29;20188;-88
2022/05/09 07:00:58;;;;;;;13.37;3.10;;;12.50;65.20;;;;;;4828091;29;20181;-88
2022/05/09 07:03:25;;;;;;;12.50;2.80;;;12.60;64.20;;;;;;4827429;29;20679;-89
2022/05/09 07:05:51;;;;;;;10.63;3.13;;;12.70;65.00;;;;;;4827477;29;20179;-88
2022/05/09 07:08:19;;;;;;;11.00;2.43;;;12.80;62.80;;;;;;4827351;29;20259;-88
2022/05/09 07:10:45;;;;;;;11.93;3.00;;;13.00;62.80;;;;;;4811109;29;20188;-88
2022/05/09 07:13:11;;;;;;;16.17;3.23;;;13.10;62.40;;;;;;4827362;29;20200;-89
2022/05/09 07:15:37;;;;;;;12.50;2.90;;;13.20;61.30;;;;;;4811136;29;20180;-88
2022/05/09 07:18:04;;;;;;;10.60;2.97;;;13.10;61.10;;;;;;4811321;29;20186;-87
2022/05/09 07:20:31;;;;;;;8.03;2.37;;;13.20;61.40;;;;;;4827965;29;20205;-88
2022/05/09 07:23:07;;;;;;;9.50;2.60;;;13.40;59.90;;;;;;4827859;29;20280;-88
2022/05/09 07:25:33;;;;;;;7.10;2.67;;;13.50;59.30;;;;;;4814530;29;20179;-88
2022/05/09 07:27:59;;;;;;;6.70;2.37;;;13.70;58.40;;;;;;4814008;29;20659;-88
2022/05/09 07:30:25;;;;;;;14.63;2.37;;;13.80;57.70;;;;;;4828153;29;20176;-88
2022/05/09 07:32:52;;;;;;;18.10;2.97;;;13.80;57.20;;;;;;4827566;29;20679;-88
2022/05/09 07:35:18;;;;;;;11.53;2.50;;;14.00;57.40;;;;;;4827226;29;20180;-88
2022/05/09 07:37:44;;;;;;;6.80;2.60;;;14.00;54.60;;;;;;4811844;29;20559;-88
2022/05/09 07:40:12;;;;;;;5.13;2.17;;;14.00;53.90;;;;;;4827839;29;20180;-87
2022/05/09 07:42:40;;;;;;;9.67;2.33;;;14.10;55.00;;;;;;4827373;29;20290;-88
2022/05/09 07:45:07;;;;;;;7.63;2.20;;;14.20;54.50;;;;;;4810810;29;20180;-88
2022/05/09 07:47:33;;;;;;;12.87;2.77;;;14.20;54.30;;;;;;4826069;29;20191;-88
2022/05/09 07:49:58;;;;;;;5.80;2.40;;;14.20;53.80;;;;;;4826823;29;20180;-89
2022/05/09 07:52:24;;;;;;;8.23;2.33;;;14.30;54.00;;;;;;4810410;29;20651;-88
2022/05/09 07:54:50;;;;;;;6.80;2.27;;;14.50;55.00;;;;;;4826543;29;20190;-88
2022/05/09 07:57:16;;;;;;;7.23;2.27;;;14.60;52.40;;;;;;4810259;29;20188;-89
2022/05/09 07:59:42;;;;;;;9.20;2.40;;;14.70;52.00;;;;;;4810028;29;20622;-89
2022/05/09 08:02:07;;;;;;;9.27;2.13;;;14.40;52.70;;;;;;4826268;29;20212;-88
2022/05/09 08:04:33;;;;;;;6.53;2.33;;;14.40;51.40;;;;;;4810275;29;20204;-90
2022/05/09 08:07:00;;;;;;;7.53;1.90;;;14.40;52.60;;;;;;4826565;29;20202;-89
2022/05/09 08:09:26;;;;;;;9.30;2.27;;;14.50;50.80;;;;;;4809944;29;20187;-89
2022/05/09 08:11:51;;;;;;;9.53;2.23;;;14.70;50.90;;;;;;4810016;29;20577;-89
2022/05/09 08:14:17;;;;;;;10.53;2.70;;;14.90;51.30;;;;;;4826562;29;20179;-88
2022/05/09 08:16:43;;;;;;;7.77;2.10;;;15.00;50.00;;;;;;4826067;29;20180;-89
2022/05/09 08:19:11;;;;;;;8.13;2.17;;;14.90;50.40;;;;;;4826011;29;20176;-88
2022/05/09 08:21:37;;;;;;;16.73;2.70;;;15.10;50.20;;;;;;4809676;29;20723;-88
2022/05/09 08:24:04;;;;;;;11.47;3.27;;;15.20;50.20;;;;;;4826116;29;20181;-88
2022/05/09 08:26:31;;;;;;;6.70;2.33;;;15.30;49.20;;;;;;4809647;29;20179;-88
2022/05/09 08:28:56;;;;;;;12.87;2.67;;;15.40;50.30;;;;;;4809728;29;20606;-88
2022/05/09 08:31:23;;;;;;;8.27;2.43;;;15.50;50.40;;;;;;4825684;29;20180;-88
2022/05/09 08:33:51;;;;;;;6.85;2.20;;;15.60;48.70;;;;;;4826031;29;20302;-88
2022/05/09 08:39:03;;;;;;;8.68;2.53;;;15.80;51.00;;;;;;4826423;29;20225;-88
2022/05/09 08:41:57;;;;;;;8.45;2.25;;;16.00;49.60;;;;;;4809585;29;20235;-89
2022/05/09 08:44:47;;;;;;;16.58;2.45;;;15.80;50.00;;;;;;4808416;29;20279;-89
2022/05/09 08:47:49;;;;;;;7.10;2.60;;;16.00;48.80;;;;;;4809278;29;20172;-89
2022/05/09 08:50:39;;;;;;;5.78;2.90;;;16.20;48.40;;;;;;4809250;29;20229;-88
2022/05/09 08:53:23;;;;;;;11.93;2.83;;;16.20;47.00;;;;;;4825666;29;20200;-87
2022/05/09 08:55:49;;;;;;;11.10;2.60;;;16.30;46.40;;;;;;4810386;29;20246;-88
2022/05/09 08:58:37;;;;;;;9.05;2.08;;;16.10;49.80;;;;;;4808864;29;20279;-88
2022/05/09 09:01:38;;;;;;;13.07;2.63;;;16.00;48.80;;;;;;4825392;29;20184;-88
2022/05/09 09:04:29;;;;;;;10.35;2.97;;;15.80;47.80;;;;;;4789881;29;20206;-87
2022/05/09 09:07:03;;;;;;;9.90;2.97;;;16.10;48.90;;;;;;4809263;29;20555;-88
2022/05/09 09:09:56;;;;;;;7.60;2.60;;;15.80;49.70;;;;;;4809599;29;20647;-88
2022/05/09 09:12:34;;;;;;;10.43;3.03;;;15.80;50.00;;;;;;4808556;29;20215;-88
2022/05/09 09:15:16;;;;;;;10.13;2.55;;;16.00;52.20;;;;;;4826092;29;20176;-87
2022/05/09 09:17:53;;;;;;;9.93;2.40;;;16.00;49.60;;;;;;4811234;29;20207;-89
2022/05/09 09:20:25;;;;;;;9.55;2.58;;;15.90;50.20;;;;;;4827769;29;20233;-88
2022/05/09 09:23:30;;;;;;;13.88;3.55;;;16.20;51.80;;;;;;4826035;29;20306;-88
2022/05/09 09:26:01;;;;;;;10.32;2.75;;;16.10;49.00;;;;;;4809146;29;20272;-89
2022/05/09 09:28:29;;;;;;;10.90;3.67;;;16.30;49.50;;;;;;4825221;29;20187;-90
2022/05/09 09:30:55;;;;;;;12.95;3.47;;;16.40;48.80;;;;;;4808984;29;20191;-89
2022/05/09 09:33:21;;;;;;;12.00;3.03;;;16.60;47.40;;;;;;4825637;29;20192;-89
2022/05/09 09:36:06;;;;;;;9.82;2.40;;;16.50;47.70;;;;;;4812371;29;20744;-88
2022/05/09 09:38:39;;;;;;;9.35;2.47;;;16.60;47.10;;;;;;4829561;29;20168;-87
2022/05/09 09:41:23;;;;;;;9.75;2.75;;;16.60;45.00;;;;;;4831338;29;20167;-87
2022/05/09 09:43:54;;;;;;;8.23;2.60;;;16.50;47.20;;;;;;4810159;29;20172;-89
2022/05/09 09:46:19;;;;;;;10.05;2.45;;;16.60;46.30;;;;;;4826487;29;20165;-89
2022/05/09 09:48:45;;;;;;;12.48;2.83;;;16.80;44.40;;;;;;4810414;29;20777;-87
2022/05/09 09:51:17;;;;;;;9.32;2.50;;;16.90;43.70;;;;;;4827480;29;20183;-88
2022/05/09 09:53:52;;;;;;;11.93;2.25;;;17.00;45.20;;;;;;4826014;29;20204;-89
2022/05/09 09:56:20;;;;;;;7.38;2.50;;;17.50;44.90;;;;;;4808775;29;20643;-89
2022/05/09 09:58:47;;;;;;;10.80;3.05;;;17.80;44.80;;;;;;4825042;29;20180;-89
2022/05/09 10:01:25;;;;;;;9.77;2.80;;;18.00;44.20;;;;;;4824676;29;20212;-89
2022/05/09 10:04:24;;;;;;;13.07;3.30;;;17.80;40.90;;;;;;4808894;29;20184;-89
2022/05/09 10:07:02;;;;;;;7.65;2.50;;;17.80;42.40;;;;;;4824754;29;20165;-89
2022/05/09 10:09:35;;;;;;;10.27;2.30;;;18.00;43.30;;;;;;4809464;29;20561;-88
2022/05/09 10:12:22;;;;;;;7.93;2.70;;;17.60;41.10;;;;;;4814244;29;20226;-88
2022/05/09 10:14:50;;;;;;;6.82;2.58;;;17.80;43.50;;;;;;4813982;29;20184;-88
2022/05/09 10:17:25;;;;;;;6.22;2.50;;;18.10;40.60;;;;;;4830482;29;20570;-88
2022/05/09 10:19:51;;;;;;;7.88;2.15;;;18.40;41.30;;;;;;4830967;29;20745;-87
2022/05/09 10:25:20;;;;;;;11.45;2.72;;;18.30;36.50;;;;;;4831034;29;20171;-88
2022/05/09 10:28:07;;;;;;;6.82;2.17;;;18.30;38.80;;;;;;4814678;29;20221;-89
2022/05/09 10:30:36;;;;;;;8.70;2.95;;;18.80;38.30;;;;;;4814157;29;20176;-89
2022/05/09 10:33:32;;;;;;;9.68;2.95;;;19.00;38.10;;;;;;4814854;29;20204;-89
2022/05/09 10:36:11;;;;;;;9.88;2.72;;;19.00;37.20;;;;;;4808232;29;20264;-88
2022/05/09 10:39:08;;;;;;;7.32;2.53;;;18.70;36.20;;;;;;4814423;29;20267;-89
2022/05/09 10:41:52;;;;;;;11.15;2.83;;;18.70;38.40;;;;;;4812268;29;20708;-89
2022/05/09 10:44:51;;;;;;;4.53;2.00;;;19.00;40.60;;;;;;4814021;29;20167;-88
2022/05/09 10:47:20;;;;;;;7.57;2.58;;;19.20;36.40;;;;;;4821711;29;20203;-89
2022/05/09 10:49:50;;;;;;;12.40;2.53;;;19.10;41.00;;;;;;4814551;29;20184;-89
2022/05/09 10:52:27;;;;;;;10.15;2.90;;;19.30;37.80;;;;;;4814437;29;20225;-88
2022/05/09 10:55:01;;;;;;;7.57;2.25;;;19.30;39.80;;;;;;4830689;29;20176;-88
2022/05/09 10:57:28;;;;;;;8.52;2.58;;;19.20;35.90;;;;;;4831849;29;20164;-88
2022/05/09 11:00:04;;;;;;;7.60;2.58;;;19.40;38.60;;;;;;4814766;29;20195;-88
2022/05/09 11:02:37;;;;;;;7.38;2.38;;;19.70;37.90;;;;;;4815342;29;20310;-88
2022/05/09 11:05:03;;;;;;;8.55;2.20;;;20.00;36.40;;;;;;4831320;29;20167;-89
2022/05/09 11:07:34;;;;;;;10.57;2.92;;;19.90;36.00;;;;;;4816195;29;20274;-88
2022/05/09 11:10:25;;;;;;;10.68;2.65;;;19.80;39.20;;;;;;4832353;29;20163;-88
2022/05/09 11:13:16;;;;;;;10.25;2.47;;;19.90;37.50;;;;;;4815904;29;20276;-88
2022/05/09 11:16:06;;;;;;;10.00;2.33;;;20.10;38.00;;;;;;4831122;29;20651;-89
2022/05/09 11:19:01;;;;;;;9.52;2.92;;;20.20;38.40;;;;;;4830289;29;20251;-89
2022/05/09 11:21:45;;;;;;;8.40;2.40;;;19.80;38.20;;;;;;4829136;29;20276;-89
2022/05/09 11:24:16;;;;;;;12.93;2.20;;;19.70;38.10;;;;;;4810654;29;20168;-89
2022/05/09 11:26:52;;;;;;;8.48;2.47;;;20.20;38.80;;;;;;4826936;29;20164;-89
2022/05/09 11:29:48;;;;;;;7.13;2.38;;;20.60;36.40;;;;;;4810777;29;20172;-89
2022/05/09 11:32:19;;;;;;;11.18;2.60;;;20.50;36.10;;;;;;4826780;29;20201;-88
2022/05/09 11:35:14;;;;;;;5.53;2.30;;;20.30;37.80;;;;;;4810587;29;20216;-89
2022/05/09 11:38:13;;;;;;;6.93;2.45;;;20.70;35.20;;;;;;4810633;29;20176;-89
2022/05/09 11:41:01;;;;;;;5.10;2.03;;;20.70;32.90;;;;;;4827377;29;20169;-89
2022/05/09 11:43:55;;;;;;;10.75;2.95;;;20.70;35.70;;;;;;4811239;29;20219;-88
2022/05/09 11:46:45;;;;;;;7.75;2.80;;;20.70;34.30;;;;;;4826914;29;20160;-87
2022/05/09 11:49:14;;;;;;;13.60;2.47;;;20.60;35.30;;;;;;4827452;29;20271;-87
2022/05/09 11:51:42;;;;;;;7.70;2.38;;;20.70;35.20;;;;;;4826417;29;20200;-87
2022/05/09 11:54:12;;;;;;;9.32;2.25;;;21.00;34.90;;;;;;4810326;29;20191;-88
2022/05/09 11:56:43;;;;;;;6.07;2.53;;;21.20;33.90;;;;;;4810409;29;20219;-88
2022/05/09 11:59:32;;;;;;;12.90;2.45;;;21.00;34.90;;;;;;4810761;29;20185;-89
2022/05/09 12:02:12;;;;;;;16.17;2.92;;;21.10;36.50;;;;;;4825799;29;20246;-88
2022/05/09 12:04:45;;;;;;;7.75;2.22;;;21.40;36.40;;;;;;4826531;29;20566;-88
2022/05/09 12:07:28;;;;;;;7.80;2.58;;;21.50;33.10;;;;;;4826492;29;20195;-89
2022/05/09 12:10:03;;;;;;;7.97;2.33;;;21.30;33.00;;;;;;4826223;29;20176;-88
2022/05/09 12:12:37;;;;;;;7.57;2.33;;;21.50;34.40;;;;;;4826091;29;20199;-88
2022/05/09 12:15:15;;;;;;;7.25;2.00;;;21.30;33.50;;;;;;4826054;29;20183;-88
2022/05/09 12:17:48;;;;;;;11.15;2.97;;;21.30;33.40;;;;;;4826034;29;20270;-88
2022/05/09 12:20:26;;;;;;;12.18;2.45;;;21.60;35.90;;;;;;4809817;29;20177;-88
2022/05/09 12:22:59;;;;;;;6.85;2.38;;;21.80;34.80;;;;;;4809553;29;20302;-88
2022/05/09 12:25:34;;;;;;;8.15;2.17;;;21.70;35.40;;;;;;4825957;29;20654;-89
2022/05/09 12:28:20;;;;;;;16.65;2.97;;;21.90;34.20;;;;;;4825912;29;20225;-88
2022/05/09 12:30:59;;;;;;;8.93;2.58;;;21.90;34.90;;;;;;4826294;29;20164;-88
2022/05/09 12:33:45;;;;;;;5.63;2.03;;;21.80;35.30;;;;;;4825663;29;20200;-88
2022/05/09 12:36:16;;;;;;;4.78;2.08;;;21.80;34.50;;;;;;4809516;29;20176;-88
2022/05/09 12:38:44;;;;;;;9.48;2.50;;;21.70;35.60;;;;;;4826048;29;20229;-88
2022/05/09 12:41:34;;;;;;;9.05;2.72;;;22.00;34.00;;;;;;4825846;29;20648;-89
2022/05/09 12:44:06;;;;;;;13.38;3.17;;;22.10;34.50;;;;;;4808942;29;20188;-89
2022/05/09 12:46:36;;;;;;;7.18;2.58;;;22.50;35.00;;;;;;4809365;29;20225;-88
2022/05/09 12:49:05;;;;;;;10.82;2.33;;;22.50;34.10;;;;;;4810364;29;20650;-88
2022/05/09 12:51:34;;;;;;;10.15;2.60;;;22.50;35.00;;;;;;4809400;29;20184;-88
2022/05/09 12:54:07;;;;;;;7.05;2.40;;;22.20;35.60;;;;;;4826307;29;20187;-88
2022/05/09 12:56:33;;;;;;;9.05;2.47;;;22.10;34.00;;;;;;4810041;29;20207;-89
2022/05/09 12:59:10;;;;;;;6.75;2.72;;;22.20;34.20;;;;;;4809501;29;20226;-88
2022/05/09 13:01:41;;;;;;;8.93;2.30;;;22.30;32.90;;;;;;4808960;29;20632;-88
2022/05/09 13:04:26;;;;;;;10.13;2.58;;;22.50;34.00;;;;;;4809274;29;20176;-88
2022/05/09 13:06:55;;;;;;;7.68;2.33;;;22.30;34.60;;;;;;4825397;29;20239;-88
2022/05/09 13:09:28;;;;;;;8.95;1.95;;;22.40;34.80;;;;;;4809556;29;20180;-87
2022/05/09 13:12:13;;;;;;;8.40;2.67;;;22.40;34.50;;;;;;4809130;29;20227;-88
2022/05/09 13:14:46;;;;;;;8.50;2.38;;;22.30;34.00;;;;;;4810710;29;20180;-88
2022/05/09 13:17:25;;;;;;;9.50;2.95;;;22.30;34.40;;;;;;4826731;29;20175;-88